Fernando Pessoa — CSKQ — position and weather

sailwx.info

Track history (hours):
 
Tides and Currents Weather Stations Pressure Air Temp Water Temp Dewpoint Dewpoint Depression Visibility Wind Speed Wind Dir Waves Ship Positions

Fernando Pessoa

Last reported at 2016-Feb-09 20:34 UTC. Time now 2016-Feb-09 20:41 UTC.
Position N 38°39' W 009°05'.

Length 49 m.

Type: Passenger vessel. MMSI: 263701470.

Date/timePositionNaut miles runAvg speedWind from/ knotsBaromVisibWave heightAir tempDewpointWater temp
2016-Feb-09 20:34N 38°39' W 009°05'2 1.7
2016-Feb-09 19:33N 38°40' W 009°07'0 0.1
2016-Feb-09 18:34N 38°40' W 009°07'0 0.5
2016-Feb-09 17:33N 38°40' W 009°06'0 0.1
2016-Feb-09 16:34N 38°40' W 009°06'0 0.1
2016-Feb-09 15:33N 38°40' W 009°06'0 0.1
2016-Feb-09 14:34N 38°40' W 009°06'0 0.0
2016-Feb-09 13:34N 38°40' W 009°06'1 1.4
2016-Feb-09 12:34N 38°39' W 009°05'0 0.0
2016-Feb-09 11:33N 38°39' W 009°05'2 2.4
2016-Feb-09 10:33N 38°40' W 009°07'1 0.5
2016-Feb-09 09:33N 38°41' W 009°08'0 0.0
2016-Feb-09 08:34N 38°41' W 009°08'3 2.9
2016-Feb-09 07:33N 38°39' W 009°05'1 0.9
2016-Feb-09 06:33N 38°39' W 009°06'1 0.9
2016-Feb-09 05:33N 38°39' W 009°05'0 0.0
2016-Feb-09 04:34N 38°39' W 009°05'0 0.0
2016-Feb-09 03:34N 38°39' W 009°05'0 0.0
2016-Feb-09 02:33N 38°39' W 009°05'0 0.0
2016-Feb-09 01:33N 38°39' W 009°05'0 0.0
2016-Feb-09 00:33N 38°39' W 009°05'4 4.0
2016-Feb-08 23:33N 38°42' W 009°08'1 1.3
2016-Feb-08 22:33N 38°41' W 009°08'0 0.2
2016-Feb-08 21:33N 38°41' W 009°08'3 2.8
2016-Feb-08 20:34N 38°39' W 009°05'1 0.8
2016-Feb-08 19:34N 38°39' W 009°06'1 0.7
2016-Feb-08 18:33N 38°39' W 009°05'1 0.9
2016-Feb-08 17:34N 38°39' W 009°06'1 0.8
2016-Feb-08 16:33N 38°39' W 009°05'0 0.0
2016-Feb-08 15:33N 38°39' W 009°05'0 0.0
2016-Feb-08 14:33N 38°39' W 009°05'0 0.0
2016-Feb-08 13:33N 38°39' W 009°05'0 0.0
2016-Feb-08 12:33N 38°39' W 009°05'0 0.0
2016-Feb-08 11:33N 38°39' W 009°05'1 1.1
2016-Feb-08 10:33N 38°40' W 009°06'0 0.4
2016-Feb-08 09:33N 38°39' W 009°06'3 3.0
2016-Feb-08 08:33N 38°42' W 009°08'0 0.5
2016-Feb-08 07:33N 38°42' W 009°08'  
2016-Feb-05 21:13N 38°39' W 009°05'4 5.9
2016-Feb-05 20:33N 38°42' W 009°08'0 0.4
2016-Feb-05 19:33N 38°42' W 009°08'1 1.2
2016-Feb-05 18:33N 38°41' W 009°08'3 2.9
2016-Feb-05 17:33N 38°39' W 009°05'3 3.1
2016-Feb-05 16:33N 38°41' W 009°08'0 0.4
2016-Feb-05 15:33N 38°41' W 009°08'0 0.0
2016-Feb-05 14:34N 38°41' W 009°08'0 0.2
2016-Feb-05 13:33N 38°41' W 009°08'0 0.1
2016-Feb-05 12:33N 38°41' W 009°08'0 0.1
2016-Feb-05 11:33N 38°41' W 009°08'3 2.7
2016-Feb-05 10:33N 38°39' W 009°05'1 0.6
2016-Feb-05 09:34N 38°39' W 009°05'4 3.8
2016-Feb-05 08:33N 38°42' W 009°08'1 1.1
2016-Feb-05 07:33N 38°41' W 009°08'3 3.1
2016-Feb-05 06:33N 38°39' W 009°05'0 0.0
2016-Feb-04 21:33N 38°39' W 009°05'0 0.0
2016-Feb-04 20:33N 38°39' W 009°05'4 3.7
2016-Feb-04 19:34N 38°42' W 009°08'0 0.5
2016-Feb-04 18:33N 38°42' W 009°08'2 2.3
2016-Feb-04 17:34N 38°40' W 009°07'2 2.0
2016-Feb-04 16:33N 38°39' W 009°05'1 0.9
2016-Feb-04 15:34N 38°40' W 009°06'1 1.2
2016-Feb-04 14:33N 38°39' W 009°05'0 0.0
2016-Feb-04 13:33N 38°39' W 009°05'0 0.0
2016-Feb-04 12:33N 38°39' W 009°05'0 0.0
2016-Feb-04 11:33N 38°39' W 009°05'0 0.0
2016-Feb-04 10:33N 38°39' W 009°05'1 1.4
2016-Feb-04 09:33N 38°40' W 009°06'0 0.4
2016-Feb-04 08:34N 38°40' W 009°07'2 1.8
2016-Feb-04 07:33N 38°39' W 009°05'0 0.0
2016-Feb-04 06:33N 38°39' W 009°05'0 0.0
2016-Feb-04 05:34N 38°39' W 009°05'0 0.0
2016-Feb-04 04:34N 38°39' W 009°05'0 0.0
2016-Feb-04 03:34N 38°39' W 009°05'0 0.0
2016-Feb-04 02:34N 38°39' W 009°05'0 0.0
2016-Feb-04 01:33N 38°39' W 009°05'0 0.0
2016-Feb-04 00:33N 38°39' W 009°05'4 3.7
2016-Feb-03 23:33N 38°42' W 009°08'1 1.0
2016-Feb-03 22:33N 38°41' W 009°08'1 0.8
2016-Feb-03 21:34N 38°40' W 009°07'2 2.2
2016-Feb-03 20:33N 38°39' W 009°05'0 0.1
2016-Feb-03 19:33N 38°39' W 009°05'0 0.0
2016-Feb-03 18:33N 38°39' W 009°05'1 0.9
2016-Feb-03 17:34N 38°39' W 009°06'1 0.1
2016-Feb-03 11:34N 38°39' W 009°05'0 0.0
2016-Feb-03 10:33N 38°39' W 009°05'4 4.0
2016-Feb-03 09:33N 38°42' W 009°08'0 0.0
2016-Feb-03 08:33N 38°42' W 009°08'3 2.9
2016-Feb-03 07:33N 38°40' W 009°06'1 0.1
2016-Feb-02 10:28N 38°39' W 009°05'4 4.4
2016-Feb-02 09:33N 38°42' W 009°08'0 0.0
2016-Feb-02 08:34N 38°42' W 009°08'3 2.7
2016-Feb-02 07:33N 38°40' W 009°07'2 0.1
2016-Feb-01 10:12N 38°39' W 009°05'0 0.2
2016-Feb-01 09:34N 38°39' W 009°05'0 0.3
2016-Feb-01 08:33N 38°39' W 009°05'0 0.4
2016-Feb-01 07:33N 38°39' W 009°05'0 0.1
2016-Feb-01 06:33N 38°39' W 009°05'3 0.1
2016-Jan-30 21:33N 38°41' W 009°08'  
Track history (hours):
 
Tides and Currents Weather Stations Pressure Air Temp Water Temp Dewpoint Dewpoint Depression Visibility Wind Speed Wind Dir Waves Ship Positions

Fernando Pessoa

Last reported at 2016-Feb-09 20:34 UTC. Time now 2016-Feb-09 20:41 UTC.
Position N 38°39' W 009°05'.

Length 49 m.

Type: Passenger vessel. MMSI: 263701470.

Date/timePositionNaut miles runAvg speedWind from/ knotsBaromVisibWave heightAir tempDewpointWater temp
2016-Feb-09 20:34N 38°39' W 009°05'2 1.7
2016-Feb-09 19:33N 38°40' W 009°07'0 0.1
2016-Feb-09 18:34N 38°40' W 009°07'0 0.5
2016-Feb-09 17:33N 38°40' W 009°06'0 0.1
2016-Feb-09 16:34N 38°40' W 009°06'0 0.1
2016-Feb-09 15:33N 38°40' W 009°06'0 0.1
2016-Feb-09 14:34N 38°40' W 009°06'0 0.0
2016-Feb-09 13:34N 38°40' W 009°06'1 1.4
2016-Feb-09 12:34N 38°39' W 009°05'0 0.0
2016-Feb-09 11:33N 38°39' W 009°05'2 2.4
2016-Feb-09 10:33N 38°40' W 009°07'1 0.5
2016-Feb-09 09:33N 38°41' W 009°08'0 0.0
2016-Feb-09 08:34N 38°41' W 009°08'3 2.9
2016-Feb-09 07:33N 38°39' W 009°05'1 0.9
2016-Feb-09 06:33N 38°39' W 009°06'1 0.9
2016-Feb-09 05:33N 38°39' W 009°05'0 0.0
2016-Feb-09 04:34N 38°39' W 009°05'0 0.0
2016-Feb-09 03:34N 38°39' W 009°05'0 0.0
2016-Feb-09 02:33N 38°39' W 009°05'0 0.0
2016-Feb-09 01:33N 38°39' W 009°05'0 0.0
2016-Feb-09 00:33N 38°39' W 009°05'4 4.0
2016-Feb-08 23:33N 38°42' W 009°08'1 1.3
2016-Feb-08 22:33N 38°41' W 009°08'0 0.2
2016-Feb-08 21:33N 38°41' W 009°08'3 2.8
2016-Feb-08 20:34N 38°39' W 009°05'1 0.8
2016-Feb-08 19:34N 38°39' W 009°06'1 0.7
2016-Feb-08 18:33N 38°39' W 009°05'1 0.9
2016-Feb-08 17:34N 38°39' W 009°06'1 0.8
2016-Feb-08 16:33N 38°39' W 009°05'0 0.0
2016-Feb-08 15:33N 38°39' W 009°05'0 0.0
2016-Feb-08 14:33N 38°39' W 009°05'0 0.0
2016-Feb-08 13:33N 38°39' W 009°05'0 0.0
2016-Feb-08 12:33N 38°39' W 009°05'0 0.0
2016-Feb-08 11:33N 38°39' W 009°05'1 1.1
2016-Feb-08 10:33N 38°40' W 009°06'0 0.4
2016-Feb-08 09:33N 38°39' W 009°06'3 3.0
2016-Feb-08 08:33N 38°42' W 009°08'0 0.5
2016-Feb-08 07:33N 38°42' W 009°08'  
2016-Feb-05 21:13N 38°39' W 009°05'4 5.9
2016-Feb-05 20:33N 38°42' W 009°08'0 0.4
2016-Feb-05 19:33N 38°42' W 009°08'1 1.2
2016-Feb-05 18:33N 38°41' W 009°08'3 2.9
2016-Feb-05 17:33N 38°39' W 009°05'3 3.1
2016-Feb-05 16:33N 38°41' W 009°08'0 0.4
2016-Feb-05 15:33N 38°41' W 009°08'0 0.0
2016-Feb-05 14:34N 38°41' W 009°08'0 0.2
2016-Feb-05 13:33N 38°41' W 009°08'0 0.1
2016-Feb-05 12:33N 38°41' W 009°08'0 0.1
2016-Feb-05 11:33N 38°41' W 009°08'3 2.7
2016-Feb-05 10:33N 38°39' W 009°05'1 0.6
2016-Feb-05 09:34N 38°39' W 009°05'4 3.8
2016-Feb-05 08:33N 38°42' W 009°08'1 1.1
2016-Feb-05 07:33N 38°41' W 009°08'3 3.1
2016-Feb-05 06:33N 38°39' W 009°05'0 0.0
2016-Feb-04 21:33N 38°39' W 009°05'0 0.0
2016-Feb-04 20:33N 38°39' W 009°05'4 3.7
2016-Feb-04 19:34N 38°42' W 009°08'0 0.5
2016-Feb-04 18:33N 38°42' W 009°08'2 2.3
2016-Feb-04 17:34N 38°40' W 009°07'2 2.0
2016-Feb-04 16:33N 38°39' W 009°05'1 0.9
2016-Feb-04 15:34N 38°40' W 009°06'1 1.2
2016-Feb-04 14:33N 38°39' W 009°05'0 0.0
2016-Feb-04 13:33N 38°39' W 009°05'0 0.0
2016-Feb-04 12:33N 38°39' W 009°05'0 0.0
2016-Feb-04 11:33N 38°39' W 009°05'0 0.0
2016-Feb-04 10:33N 38°39' W 009°05'1 1.4
2016-Feb-04 09:33N 38°40' W 009°06'0 0.4
2016-Feb-04 08:34N 38°40' W 009°07'2 1.8
2016-Feb-04 07:33N 38°39' W 009°05'0 0.0
2016-Feb-04 06:33N 38°39' W 009°05'0 0.0
2016-Feb-04 05:34N 38°39' W 009°05'0 0.0
2016-Feb-04 04:34N 38°39' W 009°05'0 0.0
2016-Feb-04 03:34N 38°39' W 009°05'0 0.0
2016-Feb-04 02:34N 38°39' W 009°05'0 0.0
2016-Feb-04 01:33N 38°39' W 009°05'0 0.0
2016-Feb-04 00:33N 38°39' W 009°05'4 3.7
2016-Feb-03 23:33N 38°42' W 009°08'1 1.0
2016-Feb-03 22:33N 38°41' W 009°08'1 0.8
2016-Feb-03 21:34N 38°40' W 009°07'2 2.2
2016-Feb-03 20:33N 38°39' W 009°05'0 0.1
2016-Feb-03 19:33N 38°39' W 009°05'0 0.0
2016-Feb-03 18:33N 38°39' W 009°05'1 0.9
2016-Feb-03 17:34N 38°39' W 009°06'1 0.1
2016-Feb-03 11:34N 38°39' W 009°05'0 0.0
2016-Feb-03 10:33N 38°39' W 009°05'4 4.0
2016-Feb-03 09:33N 38°42' W 009°08'0 0.0
2016-Feb-03 08:33N 38°42' W 009°08'3 2.9
2016-Feb-03 07:33N 38°40' W 009°06'1 0.1
2016-Feb-02 10:28N 38°39' W 009°05'4 4.4
2016-Feb-02 09:33N 38°42' W 009°08'0 0.0
2016-Feb-02 08:34N 38°42' W 009°08'3 2.7
2016-Feb-02 07:33N 38°40' W 009°07'2 0.1
2016-Feb-01 10:12N 38°39' W 009°05'0 0.2
2016-Feb-01 09:34N 38°39' W 009°05'0 0.3
2016-Feb-01 08:33N 38°39' W 009°05'0 0.4
2016-Feb-01 07:33N 38°39' W 009°05'0 0.1
2016-Feb-01 06:33N 38°39' W 009°05'3 0.1
2016-Jan-30 21:33N 38°41' W 009°08'  

Dump ship's entire track history